Time;durP1;ratioP1;P1;durP2;ratioP2;P2;SDS_P1;SDS_P2;PMS_P1;PMS_P2;Temp;Humidity;BMP_temperature;BMP_pressure;BME280_temperature;BME280_humidity;BME280_pressure;Samples;Min_cycle;Max_cycle;Signal;HPM_P1;HPM_P2
2024/04/03 00:00:27;;;;;;;2.78;0.88;;;;;;;17.16;37.09;99460.72;5093608;28;20597;-25
2024/04/03 00:02:53;;;;;;;2.10;0.65;;;;;;;17.04;37.58;99477.00;5093537;28;20099;-26
2024/04/03 00:05:18;;;;;;;1.00;0.70;;;;;;;16.86;37.98;99469.28;5093777;28;20056;-26
2024/04/03 00:07:44;;;;;;;2.00;0.85;;;;;;;16.65;37.75;99482.44;5093566;28;20491;-25
2024/04/03 00:10:09;;;;;;;1.08;0.73;;;;;;;16.85;38.29;99483.75;5093713;28;20031;-26
2024/04/03 00:12:35;;;;;;;4.63;0.80;;;;;;;16.77;37.71;99488.50;5093746;28;20148;-26
2024/04/03 00:15:01;;;;;;;2.58;0.90;;;;;;;17.00;38.27;99487.44;5093501;28;20052;-26
2024/04/03 00:17:26;;;;;;;1.67;0.95;;;;;;;16.93;37.83;99472.59;5092020;28;20028;-26
2024/04/03 00:19:52;;;;;;;3.90;0.77;;;;;;;16.78;38.44;99487.41;5091703;28;20145;-25
2024/04/03 00:22:17;;;;;;;1.77;0.80;;;;;;;16.63;37.88;99489.13;5093563;28;20020;-25
2024/04/03 00:24:42;;;;;;;1.70;0.93;;;;;;;17.01;37.62;99485.56;5093360;28;20028;-25
2024/04/03 00:27:08;;;;;;;2.50;1.10;;;;;;;16.97;37.49;99497.91;5093407;28;20039;-25
2024/04/03 00:29:33;;;;;;;3.70;1.00;;;;;;;17.04;36.94;99495.00;5093484;28;20028;-25
2024/04/03 00:31:59;;;;;;;2.40;0.95;;;;;;;17.02;37.25;99489.06;5093164;28;20456;-26
2024/04/03 00:34:24;;;;;;;2.22;0.77;;;;;;;16.95;37.46;99491.97;5093169;28;20028;-25
2024/04/03 00:36:49;;;;;;;3.38;0.98;;;;;;;16.92;36.93;99484.38;5093279;28;20036;-25
2024/04/03 00:39:15;;;;;;;1.55;0.90;;;;;;;16.38;38.52;99493.91;5092735;28;20044;-26
2024/04/03 00:41:40;;;;;;;7.93;0.90;;;;;;;16.25;38.60;99488.88;5093032;28;20024;-25
2024/04/03 00:44:06;;;;;;;0.90;0.52;;;;;;;16.36;37.80;99498.69;5093026;28;20111;-25
2024/04/03 00:46:33;;;;;;;1.75;0.90;;;;;;;16.17;38.19;99500.84;5092820;28;20105;-26
2024/04/03 00:48:58;;;;;;;1.48;0.82;;;;;;;16.29;38.28;99516.06;5092952;28;20057;-25
2024/04/03 00:51:24;;;;;;;1.95;0.77;;;;;;;16.42;37.48;99516.50;5080063;28;20224;-25
2024/04/03 00:53:50;;;;;;;2.10;0.70;;;;;;;16.61;37.19;99518.91;5072589;28;20025;-26
2024/04/03 00:56:16;;;;;;;3.45;1.00;;;;;;;16.57;37.56;99512.41;5072689;28;20031;-25
2024/04/03 00:58:42;;;;;;;1.85;0.70;;;;;;;16.67;37.36;99522.47;5072488;28;20020;-25
2024/04/03 01:01:07;;;;;;;1.20;0.90;;;;;;;16.61;37.32;99514.34;5072494;28;20021;-25
2024/04/03 01:03:32;;;;;;;1.67;0.90;;;;;;;16.29;37.92;99524.09;5072325;28;20040;-25
2024/04/03 01:06:05;;;;;;;2.03;1.10;;;;;;;16.47;38.23;99526.53;5072235;28;20047;-25
2024/04/03 01:08:31;;;;;;;3.10;0.90;;;;;;;16.40;37.77;99521.31;5072324;28;20021;-25
2024/04/03 01:10:57;;;;;;;1.70;1.17;;;;;;;16.06;38.53;99525.91;5072029;28;20027;-26
2024/04/03 01:13:23;;;;;;;2.03;1.13;;;;;;;16.05;38.64;99536.88;5072046;28;20444;-26
2024/04/03 01:15:53;;;;;;;3.55;1.13;;;;;;;15.97;38.14;99544.31;5072144;28;20085;-25
2024/04/03 01:18:19;;;;;;;8.40;1.10;;;;;;;15.76;39.21;99539.63;5071910;28;20489;-26
2024/04/03 01:20:44;;;;;;;4.85;1.00;;;;;;;15.98;38.39;99539.75;5072085;28;20104;-26
2024/04/03 01:23:09;;;;;;;2.70;0.88;;;;;;;16.02;38.53;99548.94;5085079;28;20345;-25
2024/04/03 01:25:35;;;;;;;1.45;0.77;;;;;;;15.69;39.47;99547.00;5092281;28;20111;-26
2024/04/03 01:28:00;;;;;;;3.58;1.00;;;;;;;15.54;39.51;99551.03;5092145;28;20015;-26
2024/04/03 01:30:26;;;;;;;1.27;0.82;;;;;;;15.60;39.15;99549.25;5091570;28;20446;-25
2024/04/03 01:32:51;;;;;;;1.85;0.80;;;;;;;15.70;39.50;99551.31;5091975;28;20067;-25
2024/04/03 01:35:16;;;;;;;1.65;1.00;;;;;;;15.88;38.92;99548.44;5092113;28;20032;-25
2024/04/03 01:37:43;;;;;;;2.35;1.02;;;;;;;15.78;39.11;99551.78;5091681;28;20113;-25
2024/04/03 01:40:08;;;;;;;1.70;0.85;;;;;;;15.85;39.11;99551.59;5091965;28;20024;-24
2024/04/03 01:42:34;;;;;;;1.75;0.88;;;;;;;15.98;38.87;99548.59;5091974;28;20389;-24
2024/04/03 01:44:59;;;;;;;2.60;0.95;;;;;;;15.76;39.20;99550.38;5091691;28;20552;-25
2024/04/03 01:47:25;;;;;;;3.88;0.82;;;;;;;15.94;38.61;99544.78;5091647;28;20701;-25
2024/04/03 01:49:54;;;;;;;1.70;1.00;;;;;;;15.89;39.13;99542.00;5091623;28;20012;-26
2024/04/03 01:52:19;;;;;;;2.08;0.80;;;;;;;16.08;38.72;99549.81;5091725;28;20045;-26
2024/04/03 01:54:45;;;;;;;1.35;0.80;;;;;;;15.51;39.59;99556.88;5091603;28;20024;-26
2024/04/03 01:57:11;;;;;;;1.00;0.80;;;;;;;15.81;39.43;99561.19;5091232;28;20020;-26
2024/04/03 01:59:36;;;;;;;3.78;1.00;;;;;;;16.10;38.39;99553.06;5091421;28;20046;-27
2024/04/03 02:02:02;;;;;;;0.85;0.77;;;;;;;16.14;38.09;99555.00;5091415;28;20463;-26
2024/04/03 02:04:27;;;;;;;4.88;0.80;;;;;;;15.94;38.50;99558.19;5091416;28;20484;-26
2024/04/03 02:06:52;;;;;;;1.40;0.80;;;;;;;16.04;38.36;99557.56;5090918;28;20061;-26
2024/04/03 02:09:18;;;;;;;2.13;0.88;;;;;;;16.15;38.09;99548.59;5091231;28;20027;-26
2024/04/03 02:11:43;;;;;;;2.40;0.73;;;;;;;16.26;38.35;99560.31;5091139;28;20099;-26
2024/04/03 02:14:12;;;;;;;4.05;0.80;;;;;;;16.22;37.78;99565.38;5091027;28;20099;-26
2024/04/03 02:16:39;;;;;;;2.13;0.77;;;;;;;16.16;38.08;99566.34;5091040;28;20092;-26
2024/04/03 02:19:04;;;;;;;3.30;1.02;;;;;;;16.06;38.48;99566.16;5090945;28;20041;-26
2024/04/03 02:21:30;;;;;;;3.30;1.10;;;;;;;16.37;38.22;99570.16;5090986;28;20148;-26
2024/04/03 02:23:55;;;;;;;2.53;0.98;;;;;;;16.09;38.55;99564.84;5090624;28;20023;-26
2024/04/03 02:26:20;;;;;;;2.08;1.08;;;;;;;15.85;38.48;99564.22;5091089;28;20084;-26
2024/04/03 02:28:46;;;;;;;0.70;0.70;;;;;;;15.88;38.73;99564.53;5091002;28;20026;-26
2024/04/03 02:31:11;;;;;;;1.50;0.90;;;;;;;15.73;39.11;99558.88;5090997;28;20024;-26
2024/04/03 02:33:37;;;;;;;2.95;1.00;;;;;;;15.95;38.25;99578.59;5090828;28;20119;-26
2024/04/03 02:36:10;;;;;;;1.27;0.90;;;;;;;15.49;39.35;99563.53;5090989;28;20364;-26
2024/04/03 02:38:36;;;;;;;1.75;1.08;;;;;;;15.66;39.10;99566.25;5090463;28;20210;-24
2024/04/03 02:41:01;;;;;;;0.75;0.68;;;;;;;15.67;38.75;99573.25;5090791;28;20115;-26
2024/04/03 02:43:26;;;;;;;3.33;1.15;;;;;;;16.05;38.17;99574.47;5089674;28;20020;-25
2024/04/03 02:45:55;;;;;;;1.45;0.90;;;;;;;16.02;38.14;99594.56;5090664;28;20077;-25
2024/04/03 02:48:21;;;;;;;1.17;0.80;;;;;;;16.05;38.32;99599.44;5090828;28;20016;-26
2024/04/03 02:50:48;;;;;;;1.83;0.80;;;;;;;15.87;38.55;99600.47;5090774;28;20616;-25
2024/04/03 02:53:15;;;;;;;2.05;1.10;;;;;;;15.59;38.45;99594.06;5080951;28;20016;-26
2024/04/03 02:55:40;;;;;;;1.23;0.77;;;;;;;15.58;38.72;99607.69;5070701;28;20039;-26
2024/04/03 02:58:06;;;;;;;4.88;0.80;;;;;;;15.43;39.01;99597.50;5070057;28;20029;-25
2024/04/03 03:00:31;;;;;;;2.45;0.80;;;;;;;15.51;39.21;99596.28;5070878;28;20023;-26
2024/04/03 03:02:57;;;;;;;1.35;0.80;;;;;;;15.09;39.51;99599.22;5070966;28;20057;-26
2024/04/03 03:05:22;;;;;;;1.15;0.93;;;;;;;15.36;38.93;99602.16;5071055;28;20083;-26
2024/04/03 03:07:47;;;;;;;1.52;0.90;;;;;;;15.39;38.94;99605.19;5069578;28;20021;-26
2024/04/03 03:10:13;;;;;;;2.47;0.75;;;;;;;15.65;38.73;99619.09;5071049;28;20100;-26
2024/04/03 03:12:38;;;;;;;3.15;1.17;;;;;;;15.45;38.82;99611.47;5071149;28;20024;-26
2024/04/03 03:15:04;;;;;;;1.67;1.00;;;;;;;15.05;39.43;99614.97;5070005;28;20393;-26
2024/04/03 03:17:29;;;;;;;1.83;0.98;;;;;;;15.36;39.10;99619.06;5071026;28;20032;-25
2024/04/03 03:19:55;;;;;;;1.10;0.65;;;;;;;15.55;38.34;99619.69;5070930;28;20474;-25
2024/04/03 03:22:20;;;;;;;2.72;1.10;;;;;;;15.52;38.67;99630.91;5089687;28;20032;-25
2024/04/03 03:24:46;;;;;;;3.22;0.80;;;;;;;15.53;38.92;99621.00;5072546;28;20025;-26
2024/04/03 03:27:11;;;;;;;1.90;1.00;;;;;;;15.21;39.33;99614.22;5083857;28;20016;-26
2024/04/03 03:29:37;;;;;;;2.58;0.90;;;;;;;14.80;39.67;99621.38;5091433;28;20028;-27
2024/04/03 03:32:03;;;;;;;1.52;0.70;;;;;;;14.83;40.04;99618.25;5091324;28;20031;-28
2024/04/03 03:34:28;;;;;;;3.00;0.90;;;;;;;15.31;38.61;99621.66;5091415;28;20032;-26
2024/04/03 03:36:53;;;;;;;1.75;0.75;;;;;;;15.24;39.13;99629.81;5091183;28;20117;-26
2024/04/03 03:39:19;;;;;;;1.58;1.00;;;;;;;15.31;43.91;99635.06;5090762;28;20389;-27
2024/04/03 03:41:44;;;;;;;2.38;0.95;;;;;;;15.57;40.40;99631.03;5091189;28;20027;-27
2024/04/03 03:44:09;;;;;;;1.73;1.00;;;;;;;15.74;41.53;99628.41;5090520;28;20099;-26
2024/04/03 03:46:35;;;;;;;2.75;0.90;;;;;;;16.17;46.00;99631.59;5090726;28;20421;-27
2024/04/03 03:54:29;;;;;;;3.03;1.05;;;;;;;15.63;38.26;99662.25;5092328;28;20051;-26
2024/04/03 03:56:55;;;;;;;1.20;0.70;;;;;;;15.28;39.53;99651.63;5094280;28;20042;-26
2024/04/03 03:59:20;;;;;;;1.23;0.82;;;;;;;15.15;39.54;99658.03;5093759;28;20449;-26
2024/04/03 04:01:47;;;;;;;2.08;0.85;;;;;;;15.24;39.57;99669.22;5094258;28;20103;-27
2024/04/03 04:04:13;;;;;;;0.93;0.85;;;;;;;15.01;40.14;99662.84;5094510;28;20516;-26
2024/04/03 04:06:38;;;;;;;1.83;1.20;;;;;;;15.19;40.03;99666.44;5094050;28;20024;-26
2024/04/03 04:09:04;;;;;;;3.55;1.15;;;;;;;14.89;40.24;99661.22;5094502;28;20452;-26
2024/04/03 04:11:30;;;;;;;2.25;0.90;;;;;;;15.18;41.02;99668.31;5094453;28;20024;-26
2024/04/03 04:13:55;;;;;;;2.42;0.95;;;;;;;15.19;40.28;99672.63;5093599;28;20019;-26
2024/04/03 04:16:21;;;;;;;3.22;1.40;;;;;;;14.93;41.04;99673.91;5093158;28;20169;-26
2024/04/03 04:18:47;;;;;;;5.65;1.50;;;;;;;15.28;39.92;99683.78;5093081;28;20016;-27
2024/04/03 04:21:15;;;;;;;5.13;1.30;;;;;;;15.79;39.31;99689.41;5093186;28;20035;-28
2024/04/03 04:23:40;;;;;;;5.63;1.80;;;;;;;16.68;38.34;99699.56;5093143;28;20464;-27
2024/04/03 04:26:05;;;;;;;4.97;1.65;;;;;;;17.04;37.42;99700.13;5092851;28;20035;-26
2024/04/03 04:28:32;;;;;;;10.80;3.25;;;;;;;17.20;37.05;99703.84;5093153;28;20031;-26
2024/04/03 04:31:02;;;;;;;8.73;3.22;;;;;;;17.55;36.73;99706.19;5093740;28;20028;-27
2024/04/03 04:33:29;;;;;;;5.05;2.78;;;;;;;17.74;35.45;99714.75;5093228;28;20035;-26
2024/04/03 04:35:55;;;;;;;6.22;1.88;;;;;;;17.82;35.69;99716.19;5094137;28;20016;-25
2024/04/03 04:38:22;;;;;;;3.72;2.03;;;;;;;18.17;35.03;99725.75;5093809;28;20115;-27
2024/04/03 04:40:53;;;;;;;4.78;2.28;;;;;;;18.58;34.26;99723.41;5093797;28;20036;-25
2024/04/03 04:43:19;;;;;;;5.53;3.83;;;;;;;18.85;34.13;99718.00;5093872;28;20043;-27
2024/04/03 04:45:44;;;;;;;7.32;2.75;;;;;;;19.20;34.03;99727.41;5094013;28;20039;-27
2024/04/03 04:48:09;;;;;;;6.15;1.65;;;;;;;18.92;33.42;99732.09;5094458;28;20027;-26
2024/04/03 04:50:35;;;;;;;6.32;1.55;;;;;;;19.57;33.03;99733.78;5092543;28;20468;-27
2024/04/03 04:53:00;;;;;;;4.30;1.15;;;;;;;20.03;32.09;99732.09;5092485;28;20020;-26
2024/04/03 04:55:26;;;;;;;2.05;1.25;;;;;;;20.59;31.63;99735.97;5092667;28;20024;-26
2024/04/03 04:57:51;;;;;;;5.68;1.23;;;;;;;20.55;31.01;99730.28;5092792;28;20028;-26
2024/04/03 05:00:16;;;;;;;2.40;1.17;;;;;;;20.49;31.49;99731.38;5092218;28;20157;-27
2024/04/03 05:02:42;;;;;;;2.88;1.15;;;;;;;20.62;30.90;99738.97;5092804;28;20020;-25
2024/04/03 05:05:07;;;;;;;4.03;1.10;;;;;;;21.25;30.37;99737.84;5092663;28;20111;-25
2024/04/03 05:07:33;;;;;;;2.33;1.35;;;;;;;21.58;30.15;99744.53;5093262;28;20016;-26
2024/04/03 05:09:58;;;;;;;4.00;1.70;;;;;;;22.01;29.31;99744.06;5093176;28;20016;-26
2024/04/03 05:12:24;;;;;;;4.03;1.67;;;;;;;21.91;29.45;99746.81;5093747;28;20115;-29
2024/04/03 05:14:49;;;;;;;4.82;1.55;;;;;;;22.37;29.16;99750.13;5093719;28;20012;-26
2024/04/03 05:17:16;;;;;;;4.93;1.45;;;;;;;22.61;28.61;99758.31;5093032;28;20468;-27
2024/04/03 05:19:41;;;;;;;2.53;1.33;;;;;;;22.83;28.32;99760.59;5093819;28;20471;-26
2024/04/03 05:22:10;;;;;;;10.45;1.35;;;;;;;23.02;27.93;99765.34;5093261;28;20031;-26
2024/04/03 05:24:36;;;;;;;3.55;1.30;;;;;;;23.12;27.29;99751.69;5093772;28;20024;-27
2024/04/03 05:27:01;;;;;;;3.03;1.00;;;;;;;22.59;27.79;99763.22;5093321;28;20077;-26
2024/04/03 05:29:27;;;;;;;2.95;1.25;;;;;;;23.10;27.54;99772.06;5093474;28;20030;-26
2024/04/03 05:31:52;;;;;;;2.90;1.15;;;;;;;23.47;27.31;99768.69;5093740;28;20027;-27
2024/04/03 05:34:18;;;;;;;2.03;0.95;;;;;;;23.76;27.15;99770.53;5091905;28;20385;-26
2024/04/03 05:36:43;;;;;;;3.80;1.20;;;;;;;23.30;27.66;99757.47;5092960;28;20032;-28
2024/04/03 05:39:09;;;;;;;3.13;1.10;;;;;;;22.94;27.55;99766.75;5093052;28;20072;-26
2024/04/03 05:41:34;;;;;;;3.03;2.00;;;;;;;23.34;27.22;99761.22;5093248;28;20028;-26
2024/04/03 05:43:59;;;;;;;8.13;3.95;;;;;;;23.83;26.67;99759.34;5093074;28;20564;-27
2024/04/03 05:46:25;;;;;;;2.50;1.55;;;;;;;24.55;25.86;99765.41;5093045;28;20020;-26
2024/04/03 05:48:50;;;;;;;7.80;1.30;;;;;;;24.15;26.03;99759.44;5092914;28;20015;-27
2024/04/03 05:51:16;;;;;;;12.80;2.80;;;;;;;24.74;26.18;99759.16;5091316;28;20404;-27
2024/04/03 05:53:41;;;;;;;13.98;1.70;;;;;;;24.28;25.90;99763.34;5092768;28;20420;-26
2024/04/03 05:56:07;;;;;;;9.07;2.35;;;;;;;24.33;25.99;99766.00;5092782;28;20036;-26
2024/04/03 05:58:34;;;;;;;3.30;1.05;;;;;;;23.91;26.23;99772.28;5092567;28;20024;-26
2024/04/03 06:01:03;;;;;;;6.85;1.50;;;;;;;23.37;26.75;99775.03;5092639;28;20020;-29
2024/04/03 06:03:29;;;;;;;5.13;1.63;;;;;;;24.63;25.80;99776.72;5092474;28;20028;-25
2024/04/03 06:05:59;;;;;;;2.22;1.10;;;;;;;24.85;25.03;99785.09;5092516;28;20024;-26
2024/04/03 06:08:25;;;;;;;4.90;1.30;;;;;;;25.27;24.99;99783.28;5092869;28;20023;-26
2024/04/03 06:10:52;;;;;;;3.60;1.48;;;;;;;25.59;24.54;99778.88;5092050;28;20031;-26
2024/04/03 06:13:17;;;;;;;3.83;1.63;;;;;;;25.18;24.51;99783.13;5091973;28;20464;-27
2024/04/03 06:15:44;;;;;;;1.70;1.00;;;;;;;26.44;23.85;99784.72;5092275;28;20026;-26
2024/04/03 06:18:11;;;;;;;2.20;1.20;;;;;;;27.03;22.92;99787.41;5092235;28;20020;-26
2024/04/03 06:20:36;;;;;;;2.03;1.20;;;;;;;27.62;22.32;99794.63;5091688;28;20020;-27
2024/04/03 06:23:02;;;;;;;1.73;1.10;;;;;;;27.33;22.25;99798.69;5091984;28;20086;-26
2024/04/03 06:25:28;;;;;;;3.30;1.00;;;;;;;25.99;23.76;99794.72;5092158;28;20524;-26
2024/04/03 06:27:56;;;;;;;2.72;0.93;;;;;;;26.59;24.97;99796.41;5092338;28;20028;-27
2024/04/03 06:30:22;;;;;;;4.97;1.10;;;;;;;26.37;23.75;99806.19;5091935;28;20028;-28
2024/04/03 06:32:48;;;;;;;2.70;1.00;;;;;;;25.60;24.03;99801.47;5092104;28;20092;-27
2024/04/03 06:35:14;;;;;;;2.80;1.00;;;;;;;25.60;23.82;99802.28;5092042;28;20030;-27
2024/04/03 06:37:40;;;;;;;2.22;0.90;;;;;;;24.74;24.46;99792.59;5091904;28;20103;-26
2024/04/03 06:40:09;;;;;;;4.20;1.10;;;;;;;24.35;25.48;99803.75;5092222;28;20017;-26
2024/04/03 06:42:38;;;;;;;4.15;0.95;;;;;;;25.13;26.01;99804.19;5091814;28;20038;-27
2024/04/03 06:45:04;;;;;;;3.58;1.08;;;;;;;25.56;24.77;99806.72;5091485;28;20108;-28
2024/04/03 06:47:30;;;;;;;3.78;1.10;;;;;;;25.89;24.24;99801.16;5091204;28;20067;-28
2024/04/03 06:49:56;;;;;;;5.82;1.42;;;;;;;26.74;23.86;99811.63;5077504;28;20467;-27
2024/04/03 06:52:25;;;;;;;3.83;1.17;;;;;;;25.99;24.03;99808.34;5091562;28;20020;-27
2024/04/03 06:54:51;;;;;;;3.72;1.25;;;;;;;26.73;23.67;99810.81;5091211;28;20023;-27
2024/04/03 06:57:16;;;;;;;6.43;2.08;;;;;;;26.22;23.92;99817.44;5091011;28;20055;-28
2024/04/03 06:59:42;;;;;;;2.53;1.20;;;;;;;26.05;23.70;99816.13;5090980;28;20102;-27
2024/04/03 07:02:07;;;;;;;8.13;1.73;;;;;;;26.58;23.73;99813.88;5080579;28;20050;-28
2024/04/03 07:04:33;;;;;;;2.60;1.10;;;;;;;26.27;23.59;99817.28;5070878;28;20100;-28
2024/04/03 07:07:01;;;;;;;6.00;1.15;;;;;;;26.56;22.95;99811.47;5090435;28;20028;-29
2024/04/03 07:09:27;;;;;;;6.03;1.27;;;;;;;25.96;23.46;99817.16;5089646;28;20027;-27
2024/04/03 07:11:52;;;;;;;5.55;1.63;;;;;;;27.03;22.73;99817.44;5090905;28;20189;-28
2024/04/03 07:14:18;;;;;;;3.67;1.20;;;;;;;27.81;22.43;99813.50;5088159;28;20024;-28
2024/04/03 07:16:47;;;;;;;4.03;1.08;;;;;;;27.34;21.99;99815.88;5090394;28;20020;-27
2024/04/03 07:19:12;;;;;;;5.43;1.00;;;;;;;27.58;21.91;99826.44;5091071;28;20020;-28
2024/04/03 07:21:40;;;;;;;6.18;1.10;;;;;;;27.14;23.83;99820.72;5090956;28;20375;-29
2024/04/03 07:24:06;;;;;;;2.30;0.95;;;;;;;27.31;22.10;99833.72;5090523;28;20541;-28
2024/04/03 07:26:32;;;;;;;5.10;0.80;;;;;;;27.37;21.88;99826.19;5090744;28;20077;-29
2024/04/03 07:28:57;;;;;;;2.63;1.10;;;;;;;26.05;22.41;99831.69;5091638;28;20024;-27
2024/04/03 07:31:23;;;;;;;2.70;0.80;;;;;;;26.50;22.29;99832.59;5094967;28;20103;-27
2024/04/03 07:33:48;;;;;;;4.70;0.85;;;;;;;27.59;21.63;99826.13;5095068;28;20054;-27
2024/04/03 07:36:14;;;;;;;3.80;1.33;;;;;;;27.62;21.54;99825.47;5094350;28;20024;-27
2024/04/03 07:38:39;;;;;;;2.28;1.00;;;;;;;27.81;21.35;99825.22;5094503;28;20612;-27
2024/04/03 07:41:05;;;;;;;3.60;0.80;;;;;;;27.30;21.43;99812.97;5093934;28;20476;-27
2024/04/03 07:43:30;;;;;;;4.22;1.17;;;;;;;26.29;22.06;99809.59;5093272;28;20115;-27
2024/04/03 07:45:57;;;;;;;2.08;0.80;;;;;;;25.76;23.19;99816.44;5094069;28;20111;-28
2024/04/03 07:48:23;;;;;;;4.35;1.30;;;;;;;26.31;22.78;99812.84;5081574;28;20121;-28
2024/04/03 07:50:48;;;;;;;4.78;2.20;;;;;;;26.59;22.35;99818.22;5093804;28;20476;-28
2024/04/03 07:53:13;;;;;;;4.25;1.85;;;;;;;27.20;22.12;99819.47;5093842;28;20062;-27
2024/04/03 07:55:39;;;;;;;2.60;1.05;;;;;;;27.35;21.53;99814.75;5093917;28;20039;-31
2024/04/03 07:58:05;;;;;;;1.77;1.25;;;;;;;28.24;21.32;99816.34;5089605;28;20111;-28
2024/04/03 08:00:31;;;;;;;9.35;1.20;;;;;;;27.72;21.25;99812.66;5093585;28;20028;-27
2024/04/03 08:02:57;;;;;;;2.17;1.00;;;;;;;28.41;20.72;99810.09;5093742;28;20020;-31
2024/04/03 08:05:22;;;;;;;4.53;1.00;;;;;;;28.89;20.16;99802.06;5093934;28;20032;-27
2024/04/03 08:07:48;;;;;;;3.38;0.90;;;;;;;28.84;19.74;99803.84;5094340;28;20065;-27
2024/04/03 08:10:14;;;;;;;5.38;0.88;;;;;;;28.83;19.24;99801.41;5093883;28;20028;-27
2024/04/03 08:12:40;;;;;;;6.25;0.95;;;;;;;29.10;19.28;99805.69;5093821;28;20162;-28
2024/04/03 08:15:11;;;;;;;7.38;1.48;;;;;;;28.60;19.92;99804.34;5094206;28;20028;-27
2024/04/03 08:17:37;;;;;;;4.80;0.88;;;;;;;28.63;20.02;99805.59;5090410;28;20039;-27
2024/04/03 08:20:02;;;;;;;1.83;0.90;;;;;;;28.92;19.68;99802.22;5083081;28;20051;-27
2024/04/03 08:22:28;;;;;;;1.05;0.57;;;;;;;29.69;18.86;99801.50;5088130;28;20020;-29
2024/04/03 08:24:53;;;;;;;1.83;0.88;;;;;;;28.97;19.46;99803.97;5080844;28;20046;-27
2024/04/03 08:27:19;;;;;;;1.45;1.00;;;;;;;29.15;19.39;99791.88;5092920;28;20046;-29
2024/04/03 08:29:48;;;;;;;2.38;1.02;;;;;;;28.79;20.02;99789.50;5093795;28;20020;-30
2024/04/03 08:32:14;;;;;;;;;;;;;;;29.36;19.38;99770.03;5094032;28;20065;-28
2024/04/03 08:34:39;;;;;;;3.55;1.55;;;;;;;29.19;19.51;99778.31;5093526;28;19908;-28
2024/04/03 08:37:06;;;;;;;2.80;1.02;;;;;;;29.62;18.55;99780.06;5093367;28;20028;-29
2024/04/03 08:39:32;;;;;;;2.83;1.10;;;;;;;29.99;18.84;99774.91;5092944;28;20044;-28
2024/04/03 08:41:59;;;;;;;2.40;0.75;;;;;;;29.71;19.22;99777.28;5092493;28;20023;-27
2024/04/03 08:44:34;;;;;;;6.82;1.10;;;;;;;29.00;19.17;99776.72;5093314;28;20020;-27
2024/04/03 08:47:01;;;;;;;2.58;0.80;;;;;;;28.62;19.39;99769.22;5093704;28;20532;-28
2024/04/03 08:49:33;;;;;;;2.25;0.98;;;;;;;27.32;19.77;99777.94;5091368;28;20023;-29
2024/04/03 08:52:07;;;;;;;1.33;0.90;;;;;;;26.93;20.59;99774.03;5088750;28;20394;-29
2024/04/03 08:54:33;;;;;;;2.28;0.80;;;;;;;27.90;20.14;99775.28;5092616;28;20024;-29
2024/04/03 08:57:02;;;;;;;4.00;0.85;;;;;;;27.96;20.22;99776.72;5092753;28;20020;-29
2024/04/03 08:59:31;;;;;;;3.42;1.45;;;;;;;27.87;19.92;99765.75;5092957;28;20024;-27
2024/04/03 09:01:56;;;;;;;2.63;0.90;;;;;;;28.16;19.66;99765.19;5093160;28;20389;-29
2024/04/03 09:04:22;;;;;;;2.97;0.80;;;;;;;28.14;19.43;99767.44;5092460;28;20707;-26
2024/04/03 09:06:47;;;;;;;2.33;1.15;;;;;;;28.55;18.85;99763.44;5093394;28;20111;-30
2024/04/03 09:09:25;;;;;;;1.90;1.00;;;;;;;28.83;18.45;99747.44;5087020;28;20016;-29
2024/04/03 09:11:59;;;;;;;1.90;0.77;;;;;;;28.36;19.43;99747.31;5093030;28;20028;-29
2024/04/03 09:14:25;;;;;;;3.67;1.60;;;;;;;27.53;19.86;99741.84;5093016;28;20046;-29
2024/04/03 09:17:00;;;;;;;6.57;2.20;;;;;;;27.93;19.90;99742.66;5093216;28;20020;-28
2024/04/03 09:19:26;;;;;;;2.45;1.17;;;;;;;28.22;18.53;99735.75;5092862;28;20024;-28
2024/04/03 09:21:52;;;;;;;3.97;1.17;;;;;;;27.80;18.19;99724.41;5084107;28;20035;-29
2024/04/03 09:24:18;;;;;;;2.42;1.50;;;;;;;28.08;18.06;99725.75;5089343;28;20404;-27
2024/04/03 09:26:44;;;;;;;7.22;1.10;;;;;;;27.43;18.69;99732.03;5092445;28;20040;-30
2024/04/03 09:29:12;;;;;;;2.63;1.23;;;;;;;27.64;18.99;99707.66;5093097;28;20016;-29
2024/04/03 09:31:37;;;;;;;1.55;0.73;;;;;;;27.78;19.03;99704.78;5092344;28;20023;-30
2024/04/03 09:34:04;;;;;;;2.67;1.10;;;;;;;27.92;19.32;99701.94;5092506;28;20172;-28
2024/04/03 09:36:29;;;;;;;2.83;0.82;;;;;;;28.30;18.97;99707.56;5092451;28;20074;-28
2024/04/03 09:38:55;;;;;;;2.63;1.00;;;;;;;28.30;18.38;99704.84;5091933;28;20499;-28
2024/04/03 09:41:21;;;;;;;3.65;1.17;;;;;;;28.13;18.93;99693.91;5092643;28;20055;-28
2024/04/03 09:43:50;;;;;;;3.53;0.90;;;;;;;28.70;18.36;99701.91;5092701;28;20038;-28
2024/04/03 09:46:17;;;;;;;;;;;;;;;28.29;18.64;99700.47;5092908;28;20028;-27
2024/04/03 09:48:47;;;;;;;1.80;0.95;;;;;;;28.77;18.32;99704.13;5092656;28;19922;-26
2024/04/03 09:51:13;;;;;;;3.13;0.98;;;;;;;28.74;18.52;99691.91;5092025;28;20036;-28
2024/04/03 09:53:39;;;;;;;1.38;0.90;;;;;;;28.27;18.70;99681.69;5092087;28;20038;-27
2024/04/03 09:56:06;;;;;;;2.97;1.30;;;;;;;29.11;18.66;99700.50;5091886;28;20032;-32
2024/04/03 09:58:35;;;;;;;3.42;1.65;;;;;;;28.94;18.88;99690.41;5092150;28;20043;-28
2024/04/03 10:01:03;;;;;;;2.17;1.17;;;;;;;28.81;19.01;99694.94;5091701;28;20095;-28
2024/04/03 10:03:30;;;;;;;7.68;1.10;;;;;;;29.48;18.24;99680.84;5092133;28;20035;-27
2024/04/03 10:06:09;;;;;;;5.05;2.60;;;;;;;29.22;18.78;99688.03;5089173;28;20150;-30
2024/04/03 10:08:37;;;;;;;;;;;;;;;29.22;18.41;99688.03;5092371;28;20024;-27
2024/04/03 10:11:10;;;;;;;3.72;1.67;;;;;;;27.13;19.98;99679.84;5086455;28;19911;-27
2024/04/03 10:13:40;;;;;;;2.15;0.93;;;;;;;27.50;19.65;99675.00;5089546;28;20023;-27
2024/04/03 10:16:12;;;;;;;2.60;1.00;;;;;;;28.77;19.05;99669.34;5091958;28;20107;-27
2024/04/03 10:18:39;;;;;;;3.65;1.30;;;;;;;29.21;18.16;99671.94;5086572;28;20024;-30
2024/04/03 10:21:09;;;;;;;3.97;1.10;;;;;;;28.82;17.49;99677.38;5091824;28;20016;-31
2024/04/03 10:23:41;;;;;;;5.72;1.42;;;;;;;28.52;17.95;99668.31;5091701;28;20108;-28
2024/04/03 10:26:07;;;;;;;2.15;1.10;;;;;;;28.73;17.95;99676.63;5091915;28;20350;-28
2024/04/03 10:28:33;;;;;;;3.35;1.30;;;;;;;28.86;17.77;99672.06;5091598;28;20024;-29
2024/04/03 10:30:58;;;;;;;10.68;1.50;;;;;;;28.91;17.31;99660.13;5091566;28;20027;-29
2024/04/03 10:33:24;;;;;;;7.68;1.27;;;;;;;29.28;17.25;99654.97;5091764;28;20169;-27
2024/04/03 10:35:50;;;;;;;5.13;1.50;;;;;;;28.94;17.39;99651.25;5091986;28;20451;-30
2024/04/03 10:38:15;;;;;;;4.68;1.20;;;;;;;28.73;17.54;99654.72;5088446;28;20496;-27
2024/04/03 10:40:41;;;;;;;1.73;0.90;;;;;;;27.82;18.05;99651.09;5088823;28;20020;-30
2024/04/03 10:43:06;;;;;;;3.75;1.50;;;;;;;28.36;17.75;99651.53;5089423;28;20426;-26
2024/04/03 10:45:32;;;;;;;6.22;1.52;;;;;;;28.47;17.57;99650.09;5088998;28;20024;-28
2024/04/03 10:47:57;;;;;;;3.60;1.35;;;;;;;28.63;17.90;99644.09;5091667;28;20537;-28
2024/04/03 10:50:23;;;;;;;5.63;1.80;;;;;;;28.23;18.45;99638.84;5091713;28;20018;-29
2024/04/03 10:52:50;;;;;;;4.80;1.02;;;;;;;27.28;18.09;99627.56;5091702;28;20437;-27
2024/04/03 10:55:19;;;;;;;5.20;1.20;;;;;;;27.44;18.87;99627.09;5091158;28;20397;-27
2024/04/03 10:57:47;;;;;;;2.47;0.85;;;;;;;28.16;18.04;99627.59;5091500;28;20089;-29
2024/04/03 11:00:14;;;;;;;2.58;1.00;;;;;;;28.26;18.21;99635.47;5089218;28;20480;-30
2024/04/03 11:02:46;;;;;;;1.98;0.88;;;;;;;27.65;18.70;99627.28;5091495;28;20025;-27
2024/04/03 11:05:13;;;;;;;3.38;1.10;;;;;;;27.99;18.69;99628.44;5089964;28;20185;-27
2024/04/03 11:07:40;;;;;;;0.90;0.70;;;;;;;27.75;18.65;99610.56;5091025;28;20016;-28
2024/04/03 11:10:12;;;;;;;4.15;1.02;;;;;;;28.17;18.17;99618.28;5091659;28;20031;-29
2024/04/03 11:12:38;;;;;;;3.63;0.90;;;;;;;28.15;18.36;99609.59;5083804;28;20089;-28
2024/04/03 11:15:05;;;;;;;1.90;1.13;;;;;;;28.51;17.87;99630.28;5087692;28;20146;-27
2024/04/03 11:17:31;;;;;;;3.30;0.80;;;;;;;29.37;17.43;99618.16;5090670;28;20069;-28
2024/04/03 11:19:56;;;;;;;6.05;1.20;;;;;;;29.49;17.17;99606.47;5090548;28;20099;-28
2024/04/03 11:22:22;;;;;;;3.20;0.90;;;;;;;30.09;16.62;99607.13;5091040;28;20028;-28
2024/04/03 11:24:47;;;;;;;2.58;1.00;;;;;;;30.05;16.60;99606.22;5088161;28;20488;-27
2024/04/03 11:27:13;;;;;;;5.53;1.92;;;;;;;29.66;17.39;99596.53;5090135;28;20020;-28
2024/04/03 11:29:41;;;;;;;2.60;1.00;;;;;;;29.58;17.26;99587.22;5091631;28;20047;-28
2024/04/03 11:32:06;;;;;;;3.10;1.10;;;;;;;29.59;17.06;99586.09;5091022;28;20020;-29
2024/04/03 11:34:32;;;;;;;2.20;1.00;;;;;;;29.98;16.78;99601.25;5091056;28;20114;-27